sensor_id;sensor_type;location;lat;lon;timestamp;P1;durP1;ratioP1;P2;durP2;ratioP2
77012;SDS011;67260;53.130;17.982;2023-04-08T00:00:43;37.80;;;22.20;;
77012;SDS011;67260;53.130;17.982;2023-04-08T00:03:20;36.00;;;22.40;;
77012;SDS011;67260;53.130;17.982;2023-04-08T00:05:46;39.00;;;22.70;;
77012;SDS011;67260;53.130;17.982;2023-04-08T00:08:13;36.30;;;21.90;;
77012;SDS011;67260;53.130;17.982;2023-04-08T00:10:40;34.20;;;20.50;;
77012;SDS011;67260;53.130;17.982;2023-04-08T00:13:06;34.80;;;19.80;;
77012;SDS011;67260;53.130;17.982;2023-04-08T00:15:32;34.30;;;20.60;;
77012;SDS011;67260;53.130;17.982;2023-04-08T00:17:58;30.40;;;18.30;;
77012;SDS011;67260;53.130;17.982;2023-04-08T00:20:25;31.40;;;19.40;;
77012;SDS011;67260;53.130;17.982;2023-04-08T00:22:51;32.50;;;19.60;;
77012;SDS011;67260;53.130;17.982;2023-04-08T00:25:17;30.90;;;19.00;;
77012;SDS011;67260;53.130;17.982;2023-04-08T00:27:43;31.30;;;18.80;;
77012;SDS011;67260;53.130;17.982;2023-04-08T00:30:09;32.10;;;20.20;;
77012;SDS011;67260;53.130;17.982;2023-04-08T00:32:37;32.10;;;19.10;;
77012;SDS011;67260;53.130;17.982;2023-04-08T00:35:03;33.60;;;19.90;;
77012;SDS011;67260;53.130;17.982;2023-04-08T00:39:56;39.90;;;20.70;;
77012;SDS011;67260;53.130;17.982;2023-04-08T00:42:22;34.70;;;20.30;;
77012;SDS011;67260;53.130;17.982;2023-04-08T00:44:48;34.00;;;21.30;;
77012;SDS011;67260;53.130;17.982;2023-04-08T00:47:14;36.80;;;22.00;;
77012;SDS011;67260;53.130;17.982;2023-04-08T00:49:41;38.80;;;21.40;;
77012;SDS011;67260;53.130;17.982;2023-04-08T00:52:08;44.20;;;22.50;;
77012;SDS011;67260;53.130;17.982;2023-04-08T00:54:35;43.50;;;24.30;;
77012;SDS011;67260;53.130;17.982;2023-04-08T00:57:04;45.30;;;26.00;;
77012;SDS011;67260;53.130;17.982;2023-04-08T00:59:31;45.30;;;26.40;;
77012;SDS011;67260;53.130;17.982;2023-04-08T01:02:01;45.20;;;25.30;;
77012;SDS011;67260;53.130;17.982;2023-04-08T01:04:46;43.00;;;24.60;;
77012;SDS011;67260;53.130;17.982;2023-04-08T01:09:56;42.00;;;23.40;;
77012;SDS011;67260;53.130;17.982;2023-04-08T01:12:29;40.00;;;22.40;;
77012;SDS011;67260;53.130;17.982;2023-04-08T01:14:58;40.90;;;22.10;;
77012;SDS011;67260;53.130;17.982;2023-04-08T01:17:28;37.50;;;21.20;;
77012;SDS011;67260;53.130;17.982;2023-04-08T01:19:57;36.40;;;20.30;;
77012;SDS011;67260;53.130;17.982;2023-04-08T01:25:19;40.80;;;23.90;;
77012;SDS011;67260;53.130;17.982;2023-04-08T01:27:49;41.60;;;23.80;;
77012;SDS011;67260;53.130;17.982;2023-04-08T01:30:18;43.00;;;23.30;;
77012;SDS011;67260;53.130;17.982;2023-04-08T01:32:45;40.90;;;23.10;;
77012;SDS011;67260;53.130;17.982;2023-04-08T01:35:11;41.10;;;22.90;;
77012;SDS011;67260;53.130;17.982;2023-04-08T01:37:40;39.90;;;22.90;;
77012;SDS011;67260;53.130;17.982;2023-04-08T01:40:08;37.40;;;19.70;;
77012;SDS011;67260;53.130;17.982;2023-04-08T01:42:36;34.70;;;21.10;;
77012;SDS011;67260;53.130;17.982;2023-04-08T01:48:17;42.40;;;24.50;;
77012;SDS011;67260;53.130;17.982;2023-04-08T01:50:43;48.60;;;26.80;;
77012;SDS011;67260;53.130;17.982;2023-04-08T01:53:12;52.50;;;29.30;;
77012;SDS011;67260;53.130;17.982;2023-04-08T01:55:39;54.30;;;29.60;;
77012;SDS011;67260;53.130;17.982;2023-04-08T01:58:06;55.50;;;29.20;;
77012;SDS011;67260;53.130;17.982;2023-04-08T02:00:38;55.30;;;28.40;;
77012;SDS011;67260;53.130;17.982;2023-04-08T02:03:07;47.40;;;26.00;;
77012;SDS011;67260;53.130;17.982;2023-04-08T02:05:37;44.50;;;23.90;;
77012;SDS011;67260;53.130;17.982;2023-04-08T02:08:05;42.00;;;24.10;;
77012;SDS011;67260;53.130;17.982;2023-04-08T02:10:31;39.30;;;21.40;;
77012;SDS011;67260;53.130;17.982;2023-04-08T02:12:57;35.20;;;21.20;;
77012;SDS011;67260;53.130;17.982;2023-04-08T02:15:24;41.50;;;21.00;;
77012;SDS011;67260;53.130;17.982;2023-04-08T02:17:54;42.30;;;21.50;;
77012;SDS011;67260;53.130;17.982;2023-04-08T02:20:30;40.50;;;22.80;;
77012;SDS011;67260;53.130;17.982;2023-04-08T02:23:08;41.80;;;22.60;;
77012;SDS011;67260;53.130;17.982;2023-04-08T02:25:40;40.00;;;21.20;;
77012;SDS011;67260;53.130;17.982;2023-04-08T02:28:14;37.10;;;20.00;;
77012;SDS011;67260;53.130;17.982;2023-04-08T02:33:18;33.30;;;18.30;;
77012;SDS011;67260;53.130;17.982;2023-04-08T02:35:47;31.90;;;17.00;;
77012;SDS011;67260;53.130;17.982;2023-04-08T02:38:16;30.80;;;16.90;;
77012;SDS011;67260;53.130;17.982;2023-04-08T02:40:43;27.00;;;16.20;;
77012;SDS011;67260;53.130;17.982;2023-04-08T02:43:09;28.80;;;17.10;;
77012;SDS011;67260;53.130;17.982;2023-04-08T02:45:45;27.00;;;15.90;;
77012;SDS011;67260;53.130;17.982;2023-04-08T02:48:13;29.00;;;16.80;;
77012;SDS011;67260;53.130;17.982;2023-04-08T02:50:39;28.40;;;17.20;;
77012;SDS011;67260;53.130;17.982;2023-04-08T02:53:06;28.10;;;16.10;;
77012;SDS011;67260;53.130;17.982;2023-04-08T02:55:33;27.00;;;16.50;;
77012;SDS011;67260;53.130;17.982;2023-04-08T02:58:00;29.80;;;16.90;;
77012;SDS011;67260;53.130;17.982;2023-04-08T03:00:26;29.20;;;17.20;;
77012;SDS011;67260;53.130;17.982;2023-04-08T03:02:52;30.60;;;16.40;;
77012;SDS011;67260;53.130;17.982;2023-04-08T03:05:19;29.30;;;16.90;;
77012;SDS011;67260;53.130;17.982;2023-04-08T03:07:46;31.10;;;18.70;;
77012;SDS011;67260;53.130;17.982;2023-04-08T03:12:42;31.40;;;17.90;;
77012;SDS011;67260;53.130;17.982;2023-04-08T03:15:11;33.00;;;19.20;;
77012;SDS011;67260;53.130;17.982;2023-04-08T03:17:37;28.50;;;16.80;;
77012;SDS011;67260;53.130;17.982;2023-04-08T03:20:04;27.30;;;15.60;;
77012;SDS011;67260;53.130;17.982;2023-04-08T03:22:32;26.90;;;15.50;;
77012;SDS011;67260;53.130;17.982;2023-04-08T03:24:59;28.90;;;16.20;;
77012;SDS011;67260;53.130;17.982;2023-04-08T03:27:30;23.80;;;14.70;;
77012;SDS011;67260;53.130;17.982;2023-04-08T03:30:02;24.00;;;14.00;;
77012;SDS011;67260;53.130;17.982;2023-04-08T03:32:33;25.70;;;14.70;;
77012;SDS011;67260;53.130;17.982;2023-04-08T03:35:01;26.60;;;15.10;;
77012;SDS011;67260;53.130;17.982;2023-04-08T03:40:15;23.80;;;14.10;;
77012;SDS011;67260;53.130;17.982;2023-04-08T03:42:41;23.60;;;13.70;;
77012;SDS011;67260;53.130;17.982;2023-04-08T03:45:08;23.00;;;13.70;;
77012;SDS011;67260;53.130;17.982;2023-04-08T03:47:34;26.90;;;15.50;;
77012;SDS011;67260;53.130;17.982;2023-04-08T03:52:35;23.90;;;13.70;;
77012;SDS011;67260;53.130;17.982;2023-04-08T03:55:15;24.70;;;13.90;;
77012;SDS011;67260;53.130;17.982;2023-04-08T03:57:43;25.00;;;13.80;;
77012;SDS011;67260;53.130;17.982;2023-04-08T04:00:13;26.10;;;13.90;;
77012;SDS011;67260;53.130;17.982;2023-04-08T04:02:41;26.20;;;15.00;;
77012;SDS011;67260;53.130;17.982;2023-04-08T04:05:08;27.50;;;15.40;;
77012;SDS011;67260;53.130;17.982;2023-04-08T04:07:41;27.60;;;15.20;;
77012;SDS011;67260;53.130;17.982;2023-04-08T04:10:27;26.70;;;15.00;;
77012;SDS011;67260;53.130;17.982;2023-04-08T04:12:54;24.50;;;14.00;;
77012;SDS011;67260;53.130;17.982;2023-04-08T04:15:27;23.40;;;13.70;;
77012;SDS011;67260;53.130;17.982;2023-04-08T04:17:56;26.90;;;15.00;;
77012;SDS011;67260;53.130;17.982;2023-04-08T04:20:24;27.10;;;15.30;;
77012;SDS011;67260;53.130;17.982;2023-04-08T04:22:59;25.20;;;15.70;;
77012;SDS011;67260;53.130;17.982;2023-04-08T04:25:35;25.50;;;14.20;;
77012;SDS011;67260;53.130;17.982;2023-04-08T04:28:06;24.70;;;14.90;;
77012;SDS011;67260;53.130;17.982;2023-04-08T04:30:41;26.60;;;14.80;;
77012;SDS011;67260;53.130;17.982;2023-04-08T04:33:10;24.00;;;14.90;;
77012;SDS011;67260;53.130;17.982;2023-04-08T04:35:38;25.90;;;15.00;;
77012;SDS011;67260;53.130;17.982;2023-04-08T04:38:07;27.60;;;15.10;;
77012;SDS011;67260;53.130;17.982;2023-04-08T04:40:37;23.90;;;13.90;;
77012;SDS011;67260;53.130;17.982;2023-04-08T04:43:17;24.70;;;13.70;;
77012;SDS011;67260;53.130;17.982;2023-04-08T04:45:44;25.30;;;14.30;;
77012;SDS011;67260;53.130;17.982;2023-04-08T04:48:18;28.30;;;15.80;;
77012;SDS011;67260;53.130;17.982;2023-04-08T04:50:55;29.20;;;16.70;;
77012;SDS011;67260;53.130;17.982;2023-04-08T04:53:27;27.40;;;15.40;;
77012;SDS011;67260;53.130;17.982;2023-04-08T04:55:57;31.40;;;17.40;;
77012;SDS011;67260;53.130;17.982;2023-04-08T04:58:29;29.00;;;16.30;;
77012;SDS011;67260;53.130;17.982;2023-04-08T05:00:57;32.30;;;17.50;;
77012;SDS011;67260;53.130;17.982;2023-04-08T05:03:30;29.70;;;17.70;;
77012;SDS011;67260;53.130;17.982;2023-04-08T05:05:59;31.80;;;18.80;;
77012;SDS011;67260;53.130;17.982;2023-04-08T05:08:25;40.30;;;23.10;;
77012;SDS011;67260;53.130;17.982;2023-04-08T05:10:51;46.40;;;27.40;;
77012;SDS011;67260;53.130;17.982;2023-04-08T05:13:23;47.60;;;27.10;;
77012;SDS011;67260;53.130;17.982;2023-04-08T05:15:53;42.50;;;25.90;;
77012;SDS011;67260;53.130;17.982;2023-04-08T05:18:19;41.00;;;24.60;;
77012;SDS011;67260;53.130;17.982;2023-04-08T05:20:48;33.50;;;19.70;;
77012;SDS011;67260;53.130;17.982;2023-04-08T05:23:15;34.30;;;20.40;;
77012;SDS011;67260;53.130;17.982;2023-04-08T05:25:42;31.10;;;18.90;;
77012;SDS011;67260;53.130;17.982;2023-04-08T05:28:16;31.80;;;19.20;;
77012;SDS011;67260;53.130;17.982;2023-04-08T05:30:47;30.10;;;18.30;;
77012;SDS011;67260;53.130;17.982;2023-04-08T05:33:16;30.40;;;18.20;;
77012;SDS011;67260;53.130;17.982;2023-04-08T05:35:44;28.30;;;16.90;;
77012;SDS011;67260;53.130;17.982;2023-04-08T05:38:11;30.90;;;18.00;;
77012;SDS011;67260;53.130;17.982;2023-04-08T05:40:38;31.20;;;18.00;;
77012;SDS011;67260;53.130;17.982;2023-04-08T05:43:04;32.30;;;18.70;;
77012;SDS011;67260;53.130;17.982;2023-04-08T05:45:38;31.70;;;19.20;;
77012;SDS011;67260;53.130;17.982;2023-04-08T05:48:05;30.00;;;19.00;;
77012;SDS011;67260;53.130;17.982;2023-04-08T05:53:09;20.90;;;14.30;;
77012;SDS011;67260;53.130;17.982;2023-04-08T05:55:38;21.40;;;14.20;;
77012;SDS011;67260;53.130;17.982;2023-04-08T05:58:09;19.30;;;13.40;;
77012;SDS011;67260;53.130;17.982;2023-04-08T06:00:37;21.40;;;13.90;;
77012;SDS011;67260;53.130;17.982;2023-04-08T06:03:03;18.60;;;13.30;;
77012;SDS011;67260;53.130;17.982;2023-04-08T06:07:56;12.80;;;9.20;;
77012;SDS011;67260;53.130;17.982;2023-04-08T06:10:23;12.10;;;9.20;;
77012;SDS011;67260;53.130;17.982;2023-04-08T06:12:49;11.90;;;9.10;;
77012;SDS011;67260;53.130;17.982;2023-04-08T06:15:19;11.70;;;9.20;;
77012;SDS011;67260;53.130;17.982;2023-04-08T06:17:46;11.50;;;9.50;;
77012;SDS011;67260;53.130;17.982;2023-04-08T06:20:12;11.10;;;9.10;;
77012;SDS011;67260;53.130;17.982;2023-04-08T06:22:39;10.20;;;8.30;;
77012;SDS011;67260;53.130;17.982;2023-04-08T06:25:06;11.70;;;9.10;;
77012;SDS011;67260;53.130;17.982;2023-04-08T06:27:33;11.10;;;9.70;;
77012;SDS011;67260;53.130;17.982;2023-04-08T06:30:02;9.90;;;8.30;;
77012;SDS011;67260;53.130;17.982;2023-04-08T06:32:28;10.50;;;9.40;;
77012;SDS011;67260;53.130;17.982;2023-04-08T06:34:54;11.50;;;9.90;;
77012;SDS011;67260;53.130;17.982;2023-04-08T06:37:21;11.10;;;8.90;;
77012;SDS011;67260;53.130;17.982;2023-04-08T06:39:47;12.40;;;11.10;;
77012;SDS011;67260;53.130;17.982;2023-04-08T06:42:16;11.80;;;9.60;;
77012;SDS011;67260;53.130;17.982;2023-04-08T06:44:52;12.60;;;11.10;;
77012;SDS011;67260;53.130;17.982;2023-04-08T06:47:19;25.60;;;22.90;;
77012;SDS011;67260;53.130;17.982;2023-04-08T06:49:47;16.80;;;15.00;;
77012;SDS011;67260;53.130;17.982;2023-04-08T06:52:13;11.80;;;8.90;;
77012;SDS011;67260;53.130;17.982;2023-04-08T06:54:40;9.90;;;8.50;;
77012;SDS011;67260;53.130;17.982;2023-04-08T06:57:06;8.80;;;7.90;;
77012;SDS011;67260;53.130;17.982;2023-04-08T06:59:33;8.40;;;7.20;;
77012;SDS011;67260;53.130;17.982;2023-04-08T07:01:59;8.70;;;7.80;;
77012;SDS011;67260;53.130;17.982;2023-04-08T07:04:26;8.40;;;7.40;;
77012;SDS011;67260;53.130;17.982;2023-04-08T07:06:52;9.10;;;7.20;;
77012;SDS011;67260;53.130;17.982;2023-04-08T07:09:18;9.20;;;8.20;;
77012;SDS011;67260;53.130;17.982;2023-04-08T07:11:43;9.50;;;7.20;;
77012;SDS011;67260;53.130;17.982;2023-04-08T07:14:10;8.30;;;7.20;;
77012;SDS011;67260;53.130;17.982;2023-04-08T07:16:36;11.10;;;8.20;;
77012;SDS011;67260;53.130;17.982;2023-04-08T07:19:02;9.60;;;8.40;;
77012;SDS011;67260;53.130;17.982;2023-04-08T07:21:28;8.80;;;7.90;;
77012;SDS011;67260;53.130;17.982;2023-04-08T07:23:56;8.70;;;7.70;;
77012;SDS011;67260;53.130;17.982;2023-04-08T07:26:22;8.60;;;6.90;;
77012;SDS011;67260;53.130;17.982;2023-04-08T07:28:49;7.80;;;7.00;;
77012;SDS011;67260;53.130;17.982;2023-04-08T07:31:17;11.30;;;9.20;;
77012;SDS011;67260;53.130;17.982;2023-04-08T07:33:43;7.40;;;6.60;;
77012;SDS011;67260;53.130;17.982;2023-04-08T07:36:10;9.40;;;7.20;;
77012;SDS011;67260;53.130;17.982;2023-04-08T07:38:38;9.20;;;8.00;;
77012;SDS011;67260;53.130;17.982;2023-04-08T07:41:05;9.90;;;7.90;;
77012;SDS011;67260;53.130;17.982;2023-04-08T07:43:31;9.70;;;8.20;;
77012;SDS011;67260;53.130;17.982;2023-04-08T07:46:07;12.30;;;10.90;;
77012;SDS011;67260;53.130;17.982;2023-04-08T07:48:33;13.90;;;9.80;;
77012;SDS011;67260;53.130;17.982;2023-04-08T07:51:02;11.60;;;9.70;;
77012;SDS011;67260;53.130;17.982;2023-04-08T07:53:31;13.90;;;10.60;;
77012;SDS011;67260;53.130;17.982;2023-04-08T07:56:17;11.40;;;9.20;;
77012;SDS011;67260;53.130;17.982;2023-04-08T07:58:47;11.60;;;9.30;;
77012;SDS011;67260;53.130;17.982;2023-04-08T08:01:17;13.10;;;10.00;;
77012;SDS011;67260;53.130;17.982;2023-04-08T08:03:53;14.00;;;11.10;;
77012;SDS011;67260;53.130;17.982;2023-04-08T08:06:20;15.50;;;12.20;;
77012;SDS011;67260;53.130;17.982;2023-04-08T08:08:46;13.90;;;10.30;;
77012;SDS011;67260;53.130;17.982;2023-04-08T08:13:41;12.80;;;10.30;;
77012;SDS011;67260;53.130;17.982;2023-04-08T08:16:08;13.60;;;9.60;;
77012;SDS011;67260;53.130;17.982;2023-04-08T08:18:36;12.20;;;9.70;;
77012;SDS011;67260;53.130;17.982;2023-04-08T08:21:08;12.30;;;9.70;;
77012;SDS011;67260;53.130;17.982;2023-04-08T08:23:34;13.20;;;10.10;;
77012;SDS011;67260;53.130;17.982;2023-04-08T08:26:01;14.50;;;11.40;;
77012;SDS011;67260;53.130;17.982;2023-04-08T08:28:32;14.80;;;11.60;;
77012;SDS011;67260;53.130;17.982;2023-04-08T08:31:04;15.30;;;11.30;;
77012;SDS011;67260;53.130;17.982;2023-04-08T08:33:33;15.50;;;11.60;;
77012;SDS011;67260;53.130;17.982;2023-04-08T08:35:59;15.50;;;11.20;;
77012;SDS011;67260;53.130;17.982;2023-04-08T08:38:26;14.20;;;10.20;;
77012;SDS011;67260;53.130;17.982;2023-04-08T08:40:55;15.10;;;10.20;;
77012;SDS011;67260;53.130;17.982;2023-04-08T08:43:24;17.20;;;12.10;;
77012;SDS011;67260;53.130;17.982;2023-04-08T08:45:51;15.70;;;12.60;;
77012;SDS011;67260;53.130;17.982;2023-04-08T08:48:21;15.20;;;11.00;;
77012;SDS011;67260;53.130;17.982;2023-04-08T08:50:47;13.70;;;10.90;;
77012;SDS011;67260;53.130;17.982;2023-04-08T08:53:14;12.80;;;10.60;;
77012;SDS011;67260;53.130;17.982;2023-04-08T08:55:41;14.10;;;11.00;;
77012;SDS011;67260;53.130;17.982;2023-04-08T08:58:07;13.80;;;11.10;;
77012;SDS011;67260;53.130;17.982;2023-04-08T09:00:41;17.40;;;13.30;;
77012;SDS011;67260;53.130;17.982;2023-04-08T09:04:30;18.00;;;14.80;;
77012;SDS011;67260;53.130;17.982;2023-04-08T09:07:11;16.70;;;12.70;;
77012;SDS011;67260;53.130;17.982;2023-04-08T09:09:49;14.50;;;11.40;;
77012;SDS011;67260;53.130;17.982;2023-04-08T09:12:16;14.40;;;11.30;;
77012;SDS011;67260;53.130;17.982;2023-04-08T09:14:42;15.70;;;11.20;;
77012;SDS011;67260;53.130;17.982;2023-04-08T09:17:08;13.80;;;10.80;;
77012;SDS011;67260;53.130;17.982;2023-04-08T09:19:35;13.10;;;10.50;;
77012;SDS011;67260;53.130;17.982;2023-04-08T09:22:09;14.90;;;11.70;;
77012;SDS011;67260;53.130;17.982;2023-04-08T09:24:36;14.70;;;11.30;;
77012;SDS011;67260;53.130;17.982;2023-04-08T09:27:05;14.90;;;12.10;;
77012;SDS011;67260;53.130;17.982;2023-04-08T09:29:32;14.20;;;11.60;;
77012;SDS011;67260;53.130;17.982;2023-04-08T09:32:15;15.60;;;11.90;;
77012;SDS011;67260;53.130;17.982;2023-04-08T09:34:41;15.10;;;12.00;;
77012;SDS011;67260;53.130;17.982;2023-04-08T09:37:07;15.80;;;12.30;;
77012;SDS011;67260;53.130;17.982;2023-04-08T09:39:33;15.40;;;11.60;;
77012;SDS011;67260;53.130;17.982;2023-04-08T09:44:25;12.20;;;9.80;;
77012;SDS011;67260;53.130;17.982;2023-04-08T09:46:59;12.70;;;10.50;;
77012;SDS011;67260;53.130;17.982;2023-04-08T09:49:54;12.90;;;10.40;;
77012;SDS011;67260;53.130;17.982;2023-04-08T09:52:35;15.40;;;11.90;;
77012;SDS011;67260;53.130;17.982;2023-04-08T09:55:12;13.40;;;10.40;;
77012;SDS011;67260;53.130;17.982;2023-04-08T09:57:39;14.80;;;12.40;;
77012;SDS011;67260;53.130;17.982;2023-04-08T10:00:09;14.40;;;11.00;;
77012;SDS011;67260;53.130;17.982;2023-04-08T10:02:54;15.10;;;12.10;;
77012;SDS011;67260;53.130;17.982;2023-04-08T10:05:26;15.30;;;11.70;;
77012;SDS011;67260;53.130;17.982;2023-04-08T10:07:53;13.90;;;11.70;;
77012;SDS011;67260;53.130;17.982;2023-04-08T10:10:21;13.80;;;11.80;;
77012;SDS011;67260;53.130;17.982;2023-04-08T10:12:50;12.60;;;10.70;;
77012;SDS011;67260;53.130;17.982;2023-04-08T10:17:53;11.80;;;10.60;;
77012;SDS011;67260;53.130;17.982;2023-04-08T10:20:43;12.70;;;11.00;;
77012;SDS011;67260;53.130;17.982;2023-04-08T10:23:13;13.30;;;11.70;;
77012;SDS011;67260;53.130;17.982;2023-04-08T10:25:43;11.80;;;10.50;;
77012;SDS011;67260;53.130;17.982;2023-04-08T10:30:40;11.30;;;10.10;;
77012;SDS011;67260;53.130;17.982;2023-04-08T10:33:10;11.80;;;10.40;;
77012;SDS011;67260;53.130;17.982;2023-04-08T10:35:43;12.00;;;10.60;;
77012;SDS011;67260;53.130;17.982;2023-04-08T10:38:13;11.80;;;10.60;;
77012;SDS011;67260;53.130;17.982;2023-04-08T10:40:40;11.60;;;10.40;;
77012;SDS011;67260;53.130;17.982;2023-04-08T10:43:08;12.20;;;11.00;;
77012;SDS011;67260;53.130;17.982;2023-04-08T10:45:38;11.50;;;10.40;;
77012;SDS011;67260;53.130;17.982;2023-04-08T10:50:43;11.50;;;10.40;;
77012;SDS011;67260;53.130;17.982;2023-04-08T10:53:16;10.90;;;9.70;;
77012;SDS011;67260;53.130;17.982;2023-04-08T10:55:42;11.20;;;10.10;;
77012;SDS011;67260;53.130;17.982;2023-04-08T10:58:09;11.80;;;10.60;;
77012;SDS011;67260;53.130;17.982;2023-04-08T11:00:36;13.90;;;11.40;;
77012;SDS011;67260;53.130;17.982;2023-04-08T11:03:05;11.90;;;10.70;;
77012;SDS011;67260;53.130;17.982;2023-04-08T11:05:32;11.90;;;10.20;;
77012;SDS011;67260;53.130;17.982;2023-04-08T11:08:06;12.40;;;10.40;;
77012;SDS011;67260;53.130;17.982;2023-04-08T11:10:36;11.80;;;10.40;;
77012;SDS011;67260;53.130;17.982;2023-04-08T11:13:05;11.90;;;10.70;;
77012;SDS011;67260;53.130;17.982;2023-04-08T11:15:34;11.50;;;10.30;;
77012;SDS011;67260;53.130;17.982;2023-04-08T11:18:04;10.10;;;9.00;;
77012;SDS011;67260;53.130;17.982;2023-04-08T11:20:49;12.00;;;10.80;;
77012;SDS011;67260;53.130;17.982;2023-04-08T11:23:16;12.00;;;10.80;;
77012;SDS011;67260;53.130;17.982;2023-04-08T11:25:44;12.80;;;11.50;;
77012;SDS011;67260;53.130;17.982;2023-04-08T11:28:15;11.90;;;10.40;;
77012;SDS011;67260;53.130;17.982;2023-04-08T11:33:35;13.00;;;11.50;;
77012;SDS011;67260;53.130;17.982;2023-04-08T11:36:05;11.60;;;10.30;;
77012;SDS011;67260;53.130;17.982;2023-04-08T11:38:33;13.90;;;11.10;;
77012;SDS011;67260;53.130;17.982;2023-04-08T11:41:09;12.70;;;10.60;;
77012;SDS011;67260;53.130;17.982;2023-04-08T11:43:36;11.60;;;10.20;;
77012;SDS011;67260;53.130;17.982;2023-04-08T11:46:07;11.60;;;10.20;;
77012;SDS011;67260;53.130;17.982;2023-04-08T11:48:57;11.20;;;9.30;;
77012;SDS011;67260;53.130;17.982;2023-04-08T11:51:31;11.00;;;9.70;;
77012;SDS011;67260;53.130;17.982;2023-04-08T11:54:03;13.20;;;10.80;;
77012;SDS011;67260;53.130;17.982;2023-04-08T11:56:43;10.60;;;9.20;;
77012;SDS011;67260;53.130;17.982;2023-04-08T12:02:07;13.30;;;11.10;;
77012;SDS011;67260;53.130;17.982;2023-04-08T12:04:36;12.20;;;10.90;;
77012;SDS011;67260;53.130;17.982;2023-04-08T12:07:02;11.90;;;10.10;;
77012;SDS011;67260;53.130;17.982;2023-04-08T12:09:38;12.70;;;10.70;;
77012;SDS011;67260;53.130;17.982;2023-04-08T12:12:23;11.70;;;10.40;;
77012;SDS011;67260;53.130;17.982;2023-04-08T12:14:50;12.80;;;11.10;;
77012;SDS011;67260;53.130;17.982;2023-04-08T12:26:00;13.90;;;10.60;;
77012;SDS011;67260;53.130;17.982;2023-04-08T12:28:26;11.00;;;8.70;;
77012;SDS011;67260;53.130;17.982;2023-04-08T12:33:18;14.20;;;10.60;;
77012;SDS011;67260;53.130;17.982;2023-04-08T12:38:13;12.20;;;9.70;;
77012;SDS011;67260;53.130;17.982;2023-04-08T12:40:40;13.20;;;10.20;;
77012;SDS011;67260;53.130;17.982;2023-04-08T12:43:10;13.10;;;10.50;;
77012;SDS011;67260;53.130;17.982;2023-04-08T12:45:37;13.20;;;10.60;;
77012;SDS011;67260;53.130;17.982;2023-04-08T12:48:03;14.10;;;10.80;;
77012;SDS011;67260;53.130;17.982;2023-04-08T12:50:29;14.80;;;11.40;;
77012;SDS011;67260;53.130;17.982;2023-04-08T12:52:55;13.60;;;10.40;;
77012;SDS011;67260;53.130;17.982;2023-04-08T12:55:21;15.70;;;11.20;;
77012;SDS011;67260;53.130;17.982;2023-04-08T12:57:50;15.30;;;12.10;;
77012;SDS011;67260;53.130;17.982;2023-04-08T13:00:18;16.70;;;12.30;;
77012;SDS011;67260;53.130;17.982;2023-04-08T13:02:44;15.50;;;11.40;;
77012;SDS011;67260;53.130;17.982;2023-04-08T13:05:11;16.70;;;11.10;;
77012;SDS011;67260;53.130;17.982;2023-04-08T13:07:37;15.70;;;10.80;;
77012;SDS011;67260;53.130;17.982;2023-04-08T13:10:03;14.10;;;10.30;;
77012;SDS011;67260;53.130;17.982;2023-04-08T13:12:31;12.50;;;9.60;;
77012;SDS011;67260;53.130;17.982;2023-04-08T13:14:57;16.10;;;11.70;;
77012;SDS011;67260;53.130;17.982;2023-04-08T13:17:24;13.70;;;9.70;;
77012;SDS011;67260;53.130;17.982;2023-04-08T13:19:51;29.50;;;19.00;;
77012;SDS011;67260;53.130;17.982;2023-04-08T13:24:43;24.10;;;16.10;;
77012;SDS011;67260;53.130;17.982;2023-04-08T13:27:18;19.10;;;13.70;;
77012;SDS011;67260;53.130;17.982;2023-04-08T13:29:50;18.30;;;12.70;;
77012;SDS011;67260;53.130;17.982;2023-04-08T13:32:16;24.00;;;17.30;;
77012;SDS011;67260;53.130;17.982;2023-04-08T13:34:42;13.90;;;10.20;;
77012;SDS011;67260;53.130;17.982;2023-04-08T13:39:35;15.50;;;9.50;;
77012;SDS011;67260;53.130;17.982;2023-04-08T13:42:03;13.80;;;9.20;;
77012;SDS011;67260;53.130;17.982;2023-04-08T13:44:29;13.40;;;9.70;;
77012;SDS011;67260;53.130;17.982;2023-04-08T13:46:56;13.00;;;9.00;;
77012;SDS011;67260;53.130;17.982;2023-04-08T13:49:23;19.00;;;11.10;;
77012;SDS011;67260;53.130;17.982;2023-04-08T14:03:24;12.40;;;8.70;;
77012;SDS011;67260;53.130;17.982;2023-04-08T14:15:21;12.30;;;8.70;;
77012;SDS011;67260;53.130;17.982;2023-04-08T14:17:48;14.50;;;8.50;;
77012;SDS011;67260;53.130;17.982;2023-04-08T14:20:14;10.30;;;8.30;;
77012;SDS011;67260;53.130;17.982;2023-04-08T14:22:40;11.90;;;7.40;;
77012;SDS011;67260;53.130;17.982;2023-04-08T14:25:06;10.80;;;7.10;;
77012;SDS011;67260;53.130;17.982;2023-04-08T14:27:33;12.50;;;8.00;;
77012;SDS011;67260;53.130;17.982;2023-04-08T14:29:59;11.60;;;7.60;;
77012;SDS011;67260;53.130;17.982;2023-04-08T14:32:26;10.30;;;6.60;;
77012;SDS011;67260;53.130;17.982;2023-04-08T14:34:52;9.10;;;6.20;;
77012;SDS011;67260;53.130;17.982;2023-04-08T14:37:19;10.40;;;7.20;;
77012;SDS011;67260;53.130;17.982;2023-04-08T14:39:45;18.50;;;11.00;;
77012;SDS011;67260;53.130;17.982;2023-04-08T14:42:11;12.40;;;8.20;;
77012;SDS011;67260;53.130;17.982;2023-04-08T14:44:37;11.40;;;7.50;;
77012;SDS011;67260;53.130;17.982;2023-04-08T14:47:03;8.40;;;6.30;;
77012;SDS011;67260;53.130;17.982;2023-04-08T14:49:29;9.30;;;6.60;;
77012;SDS011;67260;53.130;17.982;2023-04-08T14:51:55;10.80;;;7.50;;
77012;SDS011;67260;53.130;17.982;2023-04-08T14:54:21;13.80;;;7.80;;
77012;SDS011;67260;53.130;17.982;2023-04-08T14:56:47;13.80;;;8.00;;
77012;SDS011;67260;53.130;17.982;2023-04-08T15:01:39;10.30;;;7.00;;
77012;SDS011;67260;53.130;17.982;2023-04-08T15:04:06;17.90;;;11.60;;
77012;SDS011;67260;53.130;17.982;2023-04-08T15:09:02;13.30;;;8.70;;
77012;SDS011;67260;53.130;17.982;2023-04-08T15:11:29;12.30;;;8.40;;
77012;SDS011;67260;53.130;17.982;2023-04-08T15:13:55;12.00;;;8.60;;
77012;SDS011;67260;53.130;17.982;2023-04-08T15:16:23;10.60;;;7.60;;
77012;SDS011;67260;53.130;17.982;2023-04-08T15:18:49;12.70;;;8.50;;
77012;SDS011;67260;53.130;17.982;2023-04-08T15:21:16;12.20;;;8.60;;
77012;SDS011;67260;53.130;17.982;2023-04-08T15:23:45;12.00;;;7.80;;
77012;SDS011;67260;53.130;17.982;2023-04-08T15:31:08;125.50;;;52.10;;
77012;SDS011;67260;53.130;17.982;2023-04-08T15:33:36;168.20;;;81.70;;
77012;SDS011;67260;53.130;17.982;2023-04-08T15:36:06;81.80;;;39.50;;
77012;SDS011;67260;53.130;17.982;2023-04-08T15:40:58;90.90;;;56.50;;
77012;SDS011;67260;53.130;17.982;2023-04-08T15:43:24;77.30;;;50.10;;
77012;SDS011;67260;53.130;17.982;2023-04-08T15:45:50;102.80;;;58.70;;
77012;SDS011;67260;53.130;17.982;2023-04-08T15:48:16;138.30;;;69.90;;
77012;SDS011;67260;53.130;17.982;2023-04-08T15:50:43;101.40;;;48.40;;
77012;SDS011;67260;53.130;17.982;2023-04-08T15:53:09;110.00;;;57.40;;
77012;SDS011;67260;53.130;17.982;2023-04-08T15:55:36;54.30;;;31.90;;
77012;SDS011;67260;53.130;17.982;2023-04-08T15:58:03;24.10;;;14.80;;
77012;SDS011;67260;53.130;17.982;2023-04-08T16:00:30;32.20;;;19.20;;